createdAt,value
2018-02-23T00:02:28.852Z,38.70
2018-02-23T00:05:09.194Z,36.30
2018-02-23T00:07:57.298Z,36.00
2018-02-23T00:10:37.891Z,36.00
2018-02-23T00:13:18.085Z,35.80
2018-02-23T00:15:57.819Z,36.40
2018-02-23T00:18:39.410Z,37.00
2018-02-23T00:21:19.138Z,37.00
2018-02-23T00:23:59.644Z,35.20
2018-02-23T00:26:39.815Z,35.00
2018-02-23T00:29:18.618Z,36.10
2018-02-23T00:31:57.105Z,38.50
2018-02-23T00:34:51.864Z,37.80
2018-02-23T00:37:30.300Z,38.10
2018-02-23T00:40:09.845Z,37.40
2018-02-23T00:42:50.801Z,40.00
2018-02-23T00:45:29.365Z,40.00
2018-02-23T00:48:07.817Z,36.60
2018-02-23T00:50:46.467Z,37.10
2018-02-23T00:53:25.005Z,35.50
2018-02-23T00:56:03.695Z,38.20
2018-02-23T00:58:42.335Z,37.70
2018-02-23T01:01:21.096Z,37.50
2018-02-23T01:03:59.774Z,39.10
2018-02-23T01:06:38.377Z,37.80
2018-02-23T01:09:16.895Z,39.20
2018-02-23T01:11:55.729Z,37.00
2018-02-23T01:14:34.542Z,37.00
2018-02-23T01:17:15.610Z,37.70
2018-02-23T01:19:53.918Z,35.30
2018-02-23T01:22:33.455Z,38.70
2018-02-23T01:25:13.545Z,35.90
2018-02-23T01:27:52.156Z,35.20
2018-02-23T01:30:31.815Z,38.50
2018-02-23T01:33:10.750Z,38.10
2018-02-23T01:35:53.326Z,35.20
2018-02-23T01:38:33.073Z,32.10
2018-02-23T01:41:11.800Z,37.20
2018-02-23T01:43:53.286Z,38.20
2018-02-23T01:46:35.552Z,41.90
2018-02-23T01:49:15.362Z,44.10
2018-02-23T01:51:54.924Z,46.30
2018-02-23T01:54:36.616Z,47.50
2018-02-23T01:57:16.064Z,48.40
2018-02-23T01:59:55.737Z,50.60
2018-02-23T02:02:36.132Z,50.50
2018-02-23T02:05:14.641Z,52.10
2018-02-23T02:07:53.229Z,52.80
2018-02-23T02:10:32.678Z,52.50
2018-02-23T02:13:12.031Z,53.70
2018-02-23T02:15:51.352Z,53.10
2018-02-23T02:18:29.972Z,53.20
2018-02-23T02:21:09.297Z,53.00
2018-02-23T02:23:48.005Z,53.20
2018-02-23T02:26:27.502Z,53.60
2018-02-23T02:29:06.319Z,53.40
2018-02-23T02:31:47.593Z,53.80
2018-02-23T02:34:26.728Z,54.90
2018-02-23T02:37:06.408Z,56.90
2018-02-23T02:39:47.235Z,56.70
2018-02-23T02:42:26.912Z,58.10
2018-02-23T02:45:07.985Z,58.50
2018-02-23T02:47:46.260Z,58.10
2018-02-23T02:50:24.995Z,58.00
2018-02-23T02:53:06.902Z,59.80
2018-02-23T02:55:47.724Z,61.20
2018-02-23T02:58:26.413Z,61.60
2018-02-23T03:01:05.023Z,61.80
2018-02-23T03:03:43.725Z,59.30
2018-02-23T03:06:23.256Z,59.20
2018-02-23T03:09:04.958Z,58.70
2018-02-23T03:11:45.453Z,58.80
2018-02-23T03:14:24.110Z,60.20
2018-02-23T03:17:03.784Z,61.60
2018-02-23T03:19:43.221Z,61.50
2018-02-23T03:22:22.726Z,61.60
2018-02-23T03:25:04.064Z,60.50
2018-02-23T03:27:44.548Z,60.40
2018-02-23T03:30:23.264Z,60.90
2018-02-23T03:33:02.768Z,61.60
2018-02-23T03:35:41.601Z,62.00
2018-02-23T03:38:20.242Z,61.90
2018-02-23T03:41:00.000Z,61.70
2018-02-23T03:43:38.416Z,62.00
2018-02-23T03:46:17.080Z,61.80
2018-02-23T03:48:58.757Z,62.40
2018-02-23T03:51:37.263Z,63.00
2018-02-23T03:54:15.471Z,62.20
2018-02-23T03:59:36.984Z,62.10
2018-02-23T04:02:15.505Z,62.10
2018-02-23T04:04:57.560Z,60.30
2018-02-23T04:07:38.163Z,58.40
2018-02-23T04:10:18.941Z,60.80
2018-02-23T04:13:00.456Z,50.10
2018-02-23T04:15:39.195Z,51.50
2018-02-23T04:18:17.837Z,42.40
2018-02-23T04:20:57.460Z,42.30
2018-02-23T04:23:36.006Z,42.10
2018-02-23T04:26:16.463Z,40.30
2018-02-23T04:28:55.921Z,40.30
2018-02-23T04:31:34.461Z,41.30
2018-02-23T04:34:13.767Z,42.10
2018-02-23T04:36:52.691Z,41.50
2018-02-23T04:39:31.327Z,41.40
2018-02-23T04:42:13.236Z,40.40
2018-02-23T04:44:51.541Z,40.30
2018-02-23T04:47:30.252Z,42.00
2018-02-23T04:50:12.294Z,46.50
2018-02-23T04:52:50.912Z,46.50
2018-02-23T04:55:29.473Z,45.80
2018-02-23T04:58:07.404Z,44.10
2018-02-23T05:00:51.258Z,43.20
2018-02-23T05:03:29.453Z,43.10
2018-02-23T05:06:08.942Z,39.00
2018-02-23T05:08:47.513Z,40.00
2018-02-23T05:11:28.134Z,44.80
2018-02-23T05:14:07.783Z,42.10
2018-02-23T05:16:51.455Z,44.20
2018-02-23T05:19:31.820Z,44.00
2018-02-23T05:22:11.500Z,45.60
2018-02-23T05:24:50.098Z,37.50
2018-02-23T05:27:27.569Z,37.30
2018-02-23T05:30:05.157Z,39.20
2018-02-23T05:32:46.708Z,39.50
2018-02-23T05:35:26.231Z,41.30
2018-02-23T05:38:05.964Z,40.80
2018-02-23T05:40:44.451Z,45.90
2018-02-23T05:43:22.039Z,45.50
2018-02-23T05:46:01.481Z,46.20
2018-02-23T05:48:41.206Z,47.00
2018-02-23T05:51:19.946Z,45.20
2018-02-23T05:53:59.356Z,48.60
2018-02-23T05:56:41.139Z,50.50
2018-02-23T05:59:20.740Z,50.20
2018-02-23T06:01:58.489Z,51.90
2018-02-23T06:04:40.046Z,51.60
2018-02-23T06:07:20.584Z,51.80
2018-02-23T06:10:00.259Z,51.90
2018-02-23T06:12:38.804Z,53.20
2018-02-23T06:15:17.368Z,53.00
2018-02-23T06:18:16.908Z,51.20
2018-02-23T06:20:55.472Z,55.40
2018-02-23T06:23:33.885Z,55.40
2018-02-23T06:26:12.513Z,55.50
2018-02-23T06:28:52.035Z,56.40
2018-02-23T06:31:31.140Z,56.60
2018-02-23T06:34:11.197Z,54.20
2018-02-23T06:36:50.099Z,44.50
2018-02-23T06:39:29.699Z,44.00
2018-02-23T06:42:08.365Z,45.30
2018-02-23T06:44:48.169Z,43.30
2018-02-23T06:47:29.178Z,43.50
2018-02-23T06:50:07.644Z,42.90
2018-02-23T06:52:46.517Z,44.30
2018-02-23T06:55:25.032Z,43.60
2018-02-23T06:58:03.658Z,45.40
2018-02-23T07:00:44.066Z,42.70
2018-02-23T07:03:22.688Z,42.30
2018-02-23T07:06:03.081Z,44.40
2018-02-23T07:08:42.782Z,45.20
2018-02-23T07:11:21.456Z,45.00
2018-02-23T07:13:59.942Z,45.70
2018-02-23T07:16:38.532Z,45.80
2018-02-23T07:19:18.091Z,45.20
2018-02-23T07:21:56.618Z,46.60
2018-02-23T07:24:36.163Z,49.00
2018-02-23T07:27:15.656Z,48.50
2018-02-23T07:29:56.430Z,48.60
2018-02-23T07:32:36.051Z,48.30
2018-02-23T07:35:14.760Z,50.30
2018-02-23T07:37:53.209Z,51.10
2018-02-23T07:40:31.877Z,50.90
2018-02-23T07:43:09.420Z,51.60
2018-02-23T07:45:51.070Z,52.00
2018-02-23T07:48:29.595Z,52.90
2018-02-23T07:51:08.167Z,50.20
2018-02-23T07:53:49.915Z,49.40
2018-02-23T07:56:28.493Z,49.40
2018-02-23T07:59:12.102Z,49.50
2018-02-23T08:01:50.748Z,48.20
2018-02-23T08:04:29.339Z,48.90
2018-02-23T08:07:07.642Z,50.50
2018-02-23T08:09:46.204Z,50.30
2018-02-23T08:12:24.721Z,49.20
2018-02-23T08:15:03.441Z,50.40
2018-02-23T08:17:41.946Z,50.70
2018-02-23T08:20:21.397Z,52.00
2018-02-23T08:23:01.014Z,51.10
2018-02-23T08:25:39.637Z,52.10
2018-02-23T08:28:17.197Z,50.80
2018-02-23T08:30:56.214Z,53.00
2018-02-23T08:33:34.964Z,53.70
2018-02-23T08:36:18.600Z,53.90
2018-02-23T08:38:58.289Z,52.00
2018-02-23T08:41:41.010Z,51.70
2018-02-23T08:44:19.941Z,51.50
2018-02-23T08:46:58.789Z,53.30
2018-02-23T08:49:38.267Z,53.40
2018-02-23T08:52:17.845Z,53.30
2018-02-23T08:54:55.476Z,54.50
2018-02-23T08:57:35.096Z,54.90
2018-02-23T09:00:19.847Z,55.10
2018-02-23T09:02:58.357Z,56.00
2018-02-23T09:05:37.419Z,57.60
2018-02-23T09:08:18.581Z,56.00
2018-02-23T09:10:57.359Z,56.00
2018-02-23T09:13:36.023Z,56.30
2018-02-23T09:16:22.666Z,58.00
2018-02-23T09:21:46.357Z,56.20
2018-02-23T09:24:24.486Z,56.20
2018-02-23T09:27:02.920Z,55.80
2018-02-23T09:29:41.618Z,54.80
2018-02-23T09:35:41.208Z,54.60
2018-02-23T09:38:19.565Z,54.50
2018-02-23T09:40:58.194Z,54.90
2018-02-23T09:43:37.644Z,54.70
2018-02-23T09:46:16.314Z,54.70
2018-02-23T09:48:55.829Z,54.50
2018-02-23T09:51:38.938Z,54.60
2018-02-23T09:54:17.966Z,54.30
2018-02-23T09:56:59.472Z,54.20
2018-02-23T09:59:41.540Z,55.00
2018-02-23T10:02:21.518Z,55.00
2018-02-23T10:05:03.139Z,55.00
2018-02-23T10:07:43.652Z,55.40
2018-02-23T10:10:24.317Z,56.00
2018-02-23T10:13:02.726Z,55.80
2018-02-23T10:15:42.192Z,56.10
2018-02-23T10:18:21.673Z,56.40
2018-02-23T10:21:00.213Z,56.40
2018-02-23T10:23:38.663Z,57.00
2018-02-23T10:26:19.242Z,56.70
2018-02-23T10:28:57.728Z,55.60
2018-02-23T10:31:40.250Z,56.80
2018-02-23T10:34:19.802Z,56.70
2018-02-23T10:36:59.421Z,57.00
2018-02-23T10:39:40.937Z,57.30
2018-02-23T10:42:19.460Z,57.60
2018-02-23T10:44:59.963Z,57.80
2018-02-23T10:47:38.606Z,58.40
2018-02-23T10:50:17.157Z,58.40
2018-02-23T10:52:55.619Z,59.60
2018-02-23T10:55:34.185Z,59.50
2018-02-23T10:58:14.775Z,59.00
2018-02-23T11:00:54.451Z,58.80
2018-02-23T11:03:33.148Z,58.80
2018-02-23T11:06:12.791Z,59.10
2018-02-23T11:08:51.138Z,58.90
2018-02-23T11:11:29.734Z,59.10
2018-02-23T11:14:08.194Z,58.70
2018-02-23T11:16:48.778Z,58.80
2018-02-23T11:19:31.426Z,58.60
2018-02-23T11:22:11.101Z,58.70
2018-02-23T11:24:49.495Z,58.40
2018-02-23T11:27:29.036Z,59.30
2018-02-23T11:30:08.498Z,58.80
2018-02-23T11:32:47.216Z,58.80
2018-02-23T11:35:26.738Z,59.10
2018-02-23T11:38:08.283Z,59.80
2018-02-23T11:40:47.877Z,58.60
2018-02-23T11:43:32.361Z,58.40
2018-02-23T11:46:09.832Z,57.90
2018-02-23T11:48:48.167Z,58.30
2018-02-23T11:51:27.656Z,57.70
2018-02-23T11:54:06.182Z,57.70
2018-02-23T11:56:47.898Z,57.80
2018-02-23T11:59:27.393Z,59.10
2018-02-23T12:02:05.894Z,58.90
2018-02-23T12:04:45.438Z,58.70
2018-02-23T12:07:23.990Z,58.30
2018-02-23T12:10:02.518Z,58.10
2018-02-23T12:12:41.089Z,57.50
2018-02-23T12:15:19.761Z,57.70
2018-02-23T12:17:59.294Z,57.50
2018-02-23T12:20:37.822Z,57.40
2018-02-23T12:23:16.350Z,59.20
2018-02-23T12:25:56.000Z,59.00
2018-02-23T12:28:34.806Z,58.90
2018-02-23T12:31:15.557Z,59.70
2018-02-23T12:33:55.223Z,59.50
2018-02-23T12:36:35.874Z,59.90
2018-02-23T12:39:15.265Z,60.30
2018-02-23T12:41:53.712Z,60.50
2018-02-23T12:44:34.376Z,61.30
2018-02-23T12:47:12.892Z,61.60
2018-02-23T12:49:51.317Z,61.70
2018-02-23T12:52:31.872Z,62.50
2018-02-23T12:55:11.559Z,62.20
2018-02-23T12:57:52.143Z,62.40
2018-02-23T13:00:32.704Z,62.50
2018-02-23T13:03:14.166Z,62.90
2018-02-23T13:05:52.685Z,62.80
2018-02-23T13:08:32.124Z,63.00
2018-02-23T13:11:12.693Z,63.00
2018-02-23T13:13:57.218Z,63.20
2018-02-23T13:16:35.661Z,63.10
2018-02-23T13:19:14.126Z,64.40
2018-02-23T13:21:54.659Z,64.60
2018-02-23T13:24:33.452Z,64.30
2018-02-23T13:27:18.896Z,64.10
2018-02-23T13:30:00.513Z,64.00
2018-02-23T13:32:38.916Z,64.20
2018-02-23T13:35:18.546Z,65.60
2018-02-23T13:37:57.954Z,65.40
2018-02-23T13:40:36.550Z,65.80
2018-02-23T13:43:15.143Z,66.10
2018-02-23T13:45:55.559Z,66.70
2018-02-23T13:48:35.459Z,66.80
2018-02-23T13:51:15.803Z,66.80
2018-02-23T13:53:57.300Z,66.80
2018-02-23T13:56:36.358Z,66.90
2018-02-23T13:59:14.726Z,67.30
2018-02-23T14:01:55.375Z,67.60
2018-02-23T14:04:34.846Z,68.60
2018-02-23T14:07:19.325Z,68.60
2018-02-23T14:09:58.918Z,68.90
2018-02-23T14:12:38.459Z,68.80
2018-02-23T14:15:16.878Z,69.00
2018-02-23T14:17:57.302Z,69.20
2018-02-23T14:20:38.788Z,69.20
2018-02-23T14:23:18.276Z,69.40
2018-02-23T14:25:57.729Z,69.60
2018-02-23T14:28:37.292Z,69.20
2018-02-23T14:31:15.832Z,69.20
2018-02-23T14:33:54.359Z,69.10
2018-02-23T14:36:32.659Z,69.20
2018-02-23T14:39:12.282Z,68.90
2018-02-23T14:41:53.006Z,68.90
2018-02-23T14:44:30.503Z,68.70
2018-02-23T14:47:10.094Z,69.20
2018-02-23T14:50:03.239Z,68.60
2018-02-23T14:52:41.302Z,68.70
2018-02-23T14:55:19.707Z,68.80
2018-02-23T14:57:58.148Z,68.90
2018-02-23T15:00:36.672Z,68.70
2018-02-23T15:03:15.354Z,67.30
2018-02-23T15:05:55.795Z,66.00
2018-02-23T15:08:34.444Z,66.00
2018-02-23T15:11:12.929Z,66.20
2018-02-23T15:13:50.511Z,66.60
2018-02-23T15:16:30.025Z,65.80
2018-02-23T15:19:08.471Z,66.20
2018-02-23T15:21:48.936Z,65.80
2018-02-23T15:24:27.660Z,65.20
2018-02-23T15:27:06.022Z,65.20
2018-02-23T15:29:49.619Z,65.50
2018-02-23T15:32:36.158Z,66.30
2018-02-23T15:35:15.677Z,66.40
2018-02-23T15:37:54.216Z,66.60
2018-02-23T15:40:32.592Z,66.80
2018-02-23T15:43:11.152Z,67.20
2018-02-23T15:45:49.590Z,67.20
2018-02-23T15:48:37.071Z,67.20
2018-02-23T15:51:16.664Z,66.90
2018-02-23T15:53:55.822Z,65.10
2018-02-23T15:56:34.490Z,65.20
2018-02-23T15:59:12.841Z,63.90
2018-02-23T16:01:51.308Z,59.90
2018-02-23T16:04:33.020Z,56.30
2018-02-23T16:07:15.306Z,57.10
2018-02-23T16:09:58.810Z,58.40
2018-02-23T16:12:37.269Z,58.30
2018-02-23T16:15:16.903Z,57.00
2018-02-23T16:17:55.528Z,56.90
2018-02-23T16:20:39.197Z,54.70
2018-02-23T16:23:19.817Z,54.70
2018-02-23T16:25:58.245Z,50.90
2018-02-23T16:28:38.816Z,49.00
2018-02-23T16:31:17.435Z,50.00
2018-02-23T16:33:56.967Z,50.00
2018-02-23T16:36:39.572Z,50.00
2018-02-23T16:39:18.067Z,48.60
2018-02-23T16:42:00.000Z,49.40
2018-02-23T16:44:38.210Z,49.50
2018-02-23T16:47:16.617Z,48.50
2018-02-23T16:49:55.092Z,44.70
2018-02-23T16:52:34.496Z,44.50
2018-02-23T16:55:15.053Z,45.80
2018-02-23T16:57:53.510Z,46.60
2018-02-23T17:00:32.209Z,42.20
2018-02-23T17:03:10.639Z,42.10
2018-02-23T17:05:50.987Z,38.70
2018-02-23T17:08:30.419Z,38.00
2018-02-23T17:11:10.882Z,38.60
2018-02-23T17:13:56.500Z,34.80
2018-02-23T17:16:35.072Z,34.50
2018-02-23T17:19:13.556Z,34.40
2018-02-23T17:21:53.019Z,32.90
2018-02-23T17:24:34.478Z,29.80
2018-02-23T17:27:17.996Z,30.00
2018-02-23T17:29:58.628Z,30.70
2018-02-23T17:32:37.930Z,31.00
2018-02-23T17:35:15.402Z,30.70
2018-02-23T17:37:56.970Z,30.50
2018-02-23T17:40:35.558Z,29.60
2018-02-23T17:43:16.064Z,32.90
2018-02-23T17:45:54.580Z,33.00
2018-02-23T17:48:33.130Z,33.20
2018-02-23T17:51:13.399Z,33.70
2018-02-23T17:53:52.294Z,34.30
2018-02-23T17:56:30.939Z,34.00
2018-02-23T17:59:12.327Z,32.10
2018-02-23T18:01:51.697Z,32.20
2018-02-23T18:04:32.255Z,31.80
2018-02-23T18:07:14.447Z,34.20
2018-02-23T18:09:56.376Z,33.90
2018-02-23T18:12:37.990Z,33.80
2018-02-23T18:15:16.576Z,32.80
2018-02-23T18:17:56.313Z,35.20
2018-02-23T18:20:36.962Z,36.70
2018-02-23T18:23:15.241Z,35.70
2018-02-23T18:25:53.671Z,35.10
2018-02-23T18:28:33.180Z,33.50
2018-02-23T18:31:16.712Z,33.30
2018-02-23T18:33:54.233Z,37.50
2018-02-23T18:36:39.791Z,34.70
2018-02-23T18:39:19.284Z,34.00
2018-02-23T18:41:58.890Z,34.40
2018-02-23T18:44:39.345Z,34.80
2018-02-23T18:47:18.840Z,32.90
2018-02-23T18:49:57.107Z,32.80
2018-02-23T18:52:37.284Z,33.00
2018-02-23T18:55:14.795Z,31.50
2018-02-23T18:57:53.477Z,29.90
2018-02-23T19:00:33.978Z,32.70
2018-02-23T19:03:14.563Z,31.90
2018-02-23T19:05:56.230Z,30.10
2018-02-23T19:08:36.631Z,30.10
2018-02-23T19:11:18.146Z,29.20
2018-02-23T19:14:03.506Z,28.80
2018-02-23T19:16:42.054Z,28.60
2018-02-23T19:19:19.647Z,31.10
2018-02-23T19:21:58.361Z,31.10
2018-02-23T19:24:40.063Z,30.00
2018-02-23T19:27:20.390Z,32.50
2018-02-23T19:29:58.423Z,32.70
2018-02-23T19:32:37.924Z,31.80
2018-02-23T19:35:17.884Z,32.30
2018-02-23T19:37:56.611Z,32.30
2018-02-23T19:40:34.420Z,32.30
2018-02-23T19:43:12.987Z,34.10
2018-02-23T19:45:54.665Z,34.30
2018-02-23T19:48:34.240Z,34.10
2018-02-23T19:51:12.788Z,33.40
2018-02-23T19:53:54.196Z,31.80
2018-02-23T19:56:38.645Z,33.30
2018-02-23T19:59:19.548Z,32.20
2018-02-23T20:01:58.654Z,32.40
2018-02-23T20:04:38.010Z,34.10
2018-02-23T20:07:17.689Z,30.10
2018-02-23T20:09:56.253Z,30.00
2018-02-23T20:12:35.840Z,31.20
2018-02-23T20:15:16.702Z,31.30
2018-02-23T20:17:54.980Z,32.30
2018-02-23T20:20:34.190Z,28.40
2018-02-23T20:23:13.203Z,29.00
2018-02-23T20:25:51.853Z,31.20
2018-02-23T20:28:31.417Z,31.40
2018-02-23T20:31:09.906Z,33.80
2018-02-23T20:33:48.420Z,32.30
2018-02-23T20:36:27.966Z,32.60
2018-02-23T20:39:07.498Z,31.60
2018-02-23T20:41:47.046Z,33.20
2018-02-23T20:44:26.593Z,31.20
2018-02-23T20:47:06.272Z,31.10
2018-02-23T20:49:45.905Z,31.10
2018-02-23T20:52:24.487Z,30.50
2018-02-23T20:55:03.249Z,31.50
2018-02-23T20:57:41.071Z,30.60
2018-02-23T21:00:19.568Z,32.10
2018-02-23T21:02:59.315Z,30.00
2018-02-23T21:05:37.948Z,29.60
2018-02-23T21:08:16.628Z,30.70
2018-02-23T21:10:56.238Z,28.80
2018-02-23T21:13:34.906Z,30.00
2018-02-23T21:16:13.531Z,29.70
2018-02-23T21:18:52.114Z,33.80
2018-02-23T21:21:31.111Z,32.00
2018-02-23T21:24:09.234Z,33.30
2018-02-23T21:26:46.869Z,34.30
2018-02-23T21:29:25.370Z,32.80
2018-02-23T21:32:04.009Z,30.50
2018-02-23T21:34:42.424Z,32.80
2018-02-23T21:37:22.147Z,32.50
2018-02-23T21:40:01.822Z,33.30
2018-02-23T21:42:41.335Z,32.50
2018-02-23T21:45:19.738Z,31.00
2018-02-23T21:47:58.987Z,32.30
2018-02-23T21:50:37.708Z,33.30
2018-02-23T21:53:15.594Z,31.60
2018-02-23T21:55:54.953Z,32.50
2018-02-23T21:58:34.572Z,31.20
2018-02-23T22:01:13.523Z,32.30
2018-02-23T22:03:51.398Z,35.70
2018-02-23T22:06:29.553Z,33.90
2018-02-23T22:09:09.083Z,35.00
2018-02-23T22:11:49.923Z,34.00
2018-02-23T22:14:28.665Z,33.70
2018-02-23T22:17:06.873Z,35.70
2018-02-23T22:19:45.822Z,35.80
2018-02-23T22:22:25.427Z,34.70
2018-02-23T22:25:03.960Z,34.70
2018-02-23T22:27:42.641Z,35.70
2018-02-23T22:30:21.160Z,36.10
2018-02-23T22:32:59.880Z,35.60
2018-02-23T22:35:38.475Z,35.80
2018-02-23T22:38:17.149Z,36.50
2018-02-23T22:40:58.602Z,36.80
2018-02-23T22:43:36.761Z,34.10
2018-02-23T22:46:16.401Z,35.10
2018-02-23T22:48:56.028Z,34.60
2018-02-23T22:51:34.677Z,34.70
2018-02-23T22:54:13.208Z,37.30
2018-02-23T22:56:52.069Z,36.30
2018-02-23T22:59:29.690Z,36.60
2018-02-23T23:02:09.169Z,35.30
2018-02-23T23:04:48.954Z,37.10
2018-02-23T23:07:27.410Z,36.30
2018-02-23T23:10:06.058Z,36.10
2018-02-23T23:12:45.706Z,35.90
2018-02-23T23:15:24.100Z,34.80
2018-02-23T23:18:02.969Z,36.80
2018-02-23T23:20:42.171Z,37.40
2018-02-23T23:23:20.837Z,36.30
2018-02-23T23:26:00.240Z,36.70
2018-02-23T23:28:38.800Z,35.90
2018-02-23T23:31:17.384Z,37.20
2018-02-23T23:33:56.790Z,36.10
2018-02-23T23:36:35.423Z,37.00
2018-02-23T23:39:21.119Z,37.30
2018-02-23T23:41:59.628Z,38.30
2018-02-23T23:44:38.191Z,37.80
2018-02-23T23:47:16.746Z,36.40
2018-02-23T23:49:55.443Z,37.00
2018-02-23T23:52:34.046Z,38.40
2018-02-23T23:55:13.633Z,37.90
2018-02-23T23:57:51.312Z,40.60
